createdAt,value
2022-11-24T06:16:19.579Z,1.58
2022-11-24T06:18:49.483Z,1.90
2022-11-24T06:21:21.404Z,1.77
2022-11-24T06:23:54.858Z,1.50
2022-11-24T06:26:22.795Z,1.50
2022-11-24T06:28:50.747Z,1.60
2022-11-24T06:31:18.973Z,1.40
2022-11-24T06:33:47.819Z,1.70
2022-11-24T06:36:16.089Z,1.85
2022-11-24T06:38:44.163Z,1.60
2022-11-24T06:41:14.545Z,1.90
2022-11-24T06:43:42.660Z,1.60
2022-11-24T06:46:11.698Z,1.80
2022-11-24T06:48:40.347Z,1.63
2022-11-24T06:51:12.901Z,2.28
2022-11-24T06:53:41.494Z,2.42
2022-11-24T06:56:16.167Z,1.65
2022-11-24T06:58:46.706Z,1.42
2022-11-24T07:01:17.022Z,1.58
2022-11-24T07:03:45.853Z,1.70
2022-11-24T07:06:14.877Z,1.80
2022-11-24T07:08:43.728Z,2.15
2022-11-24T07:11:15.735Z,1.92
2022-11-24T07:13:44.920Z,1.60
2022-11-24T07:16:25.041Z,1.58
2022-11-24T07:18:53.998Z,2.28
2022-11-24T07:21:23.932Z,1.73
2022-11-24T07:23:53.297Z,1.60
2022-11-24T07:26:22.473Z,1.80
2022-11-24T07:28:50.964Z,3.35
2022-11-24T07:31:21.939Z,4.78
2022-11-24T07:33:51.344Z,10.45
2022-11-24T07:36:20.250Z,9.45
2022-11-24T07:38:48.386Z,11.98
2022-11-24T07:41:19.591Z,20.75
2022-11-24T07:43:48.383Z,20.88
2022-11-24T07:46:18.240Z,25.25
2022-11-24T07:48:47.056Z,31.13
2022-11-24T07:51:16.041Z,34.45
2022-11-24T07:53:45.122Z,31.17
2022-11-24T07:56:13.410Z,29.83
2022-11-24T07:58:41.675Z,34.28
2022-11-24T08:01:15.310Z,34.97
2022-11-24T08:03:44.473Z,34.30
2022-11-24T08:06:37.457Z,35.92
2022-11-24T08:09:02.261Z,38.78
2022-11-24T08:11:31.714Z,39.20
2022-11-24T08:13:59.633Z,43.53
2022-11-24T08:16:28.113Z,42.42
2022-11-24T08:18:56.766Z,39.80
2022-11-24T08:21:25.540Z,42.95
2022-11-24T08:23:57.596Z,48.92
2022-11-24T08:26:26.522Z,50.60
2022-11-24T08:28:57.672Z,48.42
2022-11-24T08:31:33.175Z,50.05
2022-11-24T08:34:03.627Z,57.38
2022-11-24T08:36:32.066Z,56.92
2022-11-24T08:39:00.856Z,61.88
2022-11-24T08:41:29.738Z,69.45
2022-11-24T08:43:58.126Z,67.88
2022-11-24T08:46:26.269Z,62.67
2022-11-24T08:48:55.120Z,76.03
2022-11-24T08:51:26.452Z,75.90
2022-11-24T08:53:59.989Z,75.43
2022-11-24T08:56:30.239Z,75.47
2022-11-24T08:58:58.661Z,75.13
2022-11-24T09:01:27.896Z,70.15
2022-11-24T09:03:56.040Z,78.05
2022-11-24T09:06:26.503Z,78.68
2022-11-24T09:08:55.924Z,79.47
2022-11-24T09:11:24.889Z,79.70
2022-11-24T09:13:53.981Z,74.78
2022-11-24T09:16:26.200Z,74.75
2022-11-24T09:18:57.782Z,83.00
2022-11-24T09:21:25.938Z,75.05
2022-11-24T09:23:54.920Z,81.15
2022-11-24T09:26:26.270Z,84.40
2022-11-24T09:28:56.134Z,83.45
2022-11-24T09:31:27.068Z,92.55
2022-11-24T09:33:55.489Z,83.88
2022-11-24T09:36:24.639Z,87.40
2022-11-24T09:38:53.764Z,90.30
2022-11-24T09:41:34.183Z,90.65
2022-11-24T09:44:09.804Z,89.45
2022-11-24T09:46:52.917Z,90.45
2022-11-24T09:49:33.262Z,88.50
2022-11-24T09:52:09.063Z,84.32
2022-11-24T09:54:41.538Z,90.68
2022-11-24T09:57:15.897Z,88.15
2022-11-24T09:59:43.988Z,96.65
2022-11-24T10:02:13.521Z,88.63
2022-11-24T10:04:46.631Z,92.15
2022-11-24T10:07:38.276Z,93.45
2022-11-24T10:10:21.159Z,94.40
2022-11-24T10:13:02.849Z,89.43
2022-11-24T10:15:58.604Z,88.18
2022-11-24T10:18:44.965Z,93.80
2022-11-24T10:21:43.872Z,88.75
2022-11-24T10:24:30.430Z,96.30
2022-11-24T10:27:07.420Z,93.05
2022-11-24T10:29:41.154Z,91.53
2022-11-24T10:34:52.025Z,84.60
2022-11-24T10:37:23.145Z,84.63
2022-11-24T10:40:04.231Z,75.72
2022-11-24T10:42:37.126Z,74.95
2022-11-24T10:45:19.665Z,76.90
2022-11-24T10:47:47.650Z,69.43
2022-11-24T10:50:22.947Z,68.38
2022-11-24T10:52:56.692Z,66.90
2022-11-24T10:55:24.938Z,65.60
2022-11-24T10:57:53.147Z,68.30
2022-11-24T11:00:21.153Z,57.50
2022-11-24T11:02:51.512Z,57.90
